sensor_id;sensor_type;location;lat;lon;timestamp;P1;durP1;ratioP1;P2;durP2;ratioP2
1479;SDS011;732;51.698;4.886;2023-07-29T00:00:23;9.10;;;5.70;;
1479;SDS011;732;51.698;4.886;2023-07-29T00:02:54;11.47;;;5.77;;
1479;SDS011;732;51.698;4.886;2023-07-29T00:05:23;10.30;;;5.50;;
1479;SDS011;732;51.698;4.886;2023-07-29T00:07:53;9.87;;;6.17;;
1479;SDS011;732;51.698;4.886;2023-07-29T00:10:21;11.63;;;6.87;;
1479;SDS011;732;51.698;4.886;2023-07-29T00:12:50;14.90;;;7.90;;
1479;SDS011;732;51.698;4.886;2023-07-29T00:15:19;10.53;;;6.83;;
1479;SDS011;732;51.698;4.886;2023-07-29T00:17:47;9.37;;;6.57;;
1479;SDS011;732;51.698;4.886;2023-07-29T00:20:15;11.37;;;6.57;;
1479;SDS011;732;51.698;4.886;2023-07-29T00:22:44;12.57;;;6.43;;
1479;SDS011;732;51.698;4.886;2023-07-29T00:25:13;15.43;;;7.83;;
1479;SDS011;732;51.698;4.886;2023-07-29T00:27:43;11.20;;;6.30;;
1479;SDS011;732;51.698;4.886;2023-07-29T00:30:11;12.33;;;6.77;;
1479;SDS011;732;51.698;4.886;2023-07-29T00:32:41;10.80;;;6.70;;
1479;SDS011;732;51.698;4.886;2023-07-29T00:35:11;11.03;;;6.57;;
1479;SDS011;732;51.698;4.886;2023-07-29T00:37:40;9.90;;;6.20;;
1479;SDS011;732;51.698;4.886;2023-07-29T00:40:14;12.00;;;6.47;;
1479;SDS011;732;51.698;4.886;2023-07-29T00:42:47;13.90;;;6.73;;
1479;SDS011;732;51.698;4.886;2023-07-29T00:45:15;10.57;;;6.27;;
1479;SDS011;732;51.698;4.886;2023-07-29T00:47:44;15.83;;;6.30;;
1479;SDS011;732;51.698;4.886;2023-07-29T00:50:16;13.60;;;6.87;;
1479;SDS011;732;51.698;4.886;2023-07-29T00:52:45;8.67;;;6.03;;
1479;SDS011;732;51.698;4.886;2023-07-29T00:55:16;10.60;;;6.03;;
1479;SDS011;732;51.698;4.886;2023-07-29T00:57:44;13.73;;;6.40;;
1479;SDS011;732;51.698;4.886;2023-07-29T01:00:14;14.00;;;6.20;;
1479;SDS011;732;51.698;4.886;2023-07-29T01:02:43;8.57;;;5.43;;
1479;SDS011;732;51.698;4.886;2023-07-29T01:05:13;11.90;;;6.67;;
1479;SDS011;732;51.698;4.886;2023-07-29T01:07:47;10.50;;;5.90;;
1479;SDS011;732;51.698;4.886;2023-07-29T01:10:29;7.90;;;5.03;;
1479;SDS011;732;51.698;4.886;2023-07-29T01:13:09;9.43;;;5.53;;
1479;SDS011;732;51.698;4.886;2023-07-29T01:15:43;10.43;;;5.10;;
1479;SDS011;732;51.698;4.886;2023-07-29T01:18:18;7.73;;;5.20;;
1479;SDS011;732;51.698;4.886;2023-07-29T01:20:51;10.97;;;5.40;;
1479;SDS011;732;51.698;4.886;2023-07-29T01:23:26;6.67;;;4.10;;
1479;SDS011;732;51.698;4.886;2023-07-29T01:25:58;9.43;;;3.80;;
1479;SDS011;732;51.698;4.886;2023-07-29T01:28:26;4.97;;;3.53;;
1479;SDS011;732;51.698;4.886;2023-07-29T01:30:57;6.40;;;3.60;;
1479;SDS011;732;51.698;4.886;2023-07-29T01:33:35;4.73;;;3.00;;
1479;SDS011;732;51.698;4.886;2023-07-29T01:36:13;5.27;;;2.97;;
1479;SDS011;732;51.698;4.886;2023-07-29T01:38:51;4.40;;;3.20;;
1479;SDS011;732;51.698;4.886;2023-07-29T01:41:23;4.80;;;3.00;;
1479;SDS011;732;51.698;4.886;2023-07-29T01:43:52;3.80;;;2.30;;
1479;SDS011;732;51.698;4.886;2023-07-29T01:46:22;4.33;;;2.43;;
1479;SDS011;732;51.698;4.886;2023-07-29T01:48:51;3.83;;;2.73;;
1479;SDS011;732;51.698;4.886;2023-07-29T01:51:19;8.27;;;2.07;;
1479;SDS011;732;51.698;4.886;2023-07-29T01:53:48;4.00;;;2.57;;
1479;SDS011;732;51.698;4.886;2023-07-29T01:56:18;3.50;;;2.57;;
1479;SDS011;732;51.698;4.886;2023-07-29T01:58:53;3.93;;;2.33;;
1479;SDS011;732;51.698;4.886;2023-07-29T02:01:21;3.90;;;2.43;;
1479;SDS011;732;51.698;4.886;2023-07-29T02:03:50;4.17;;;2.60;;
1479;SDS011;732;51.698;4.886;2023-07-29T02:06:22;2.60;;;1.90;;
1479;SDS011;732;51.698;4.886;2023-07-29T02:08:51;7.83;;;2.47;;
1479;SDS011;732;51.698;4.886;2023-07-29T02:11:21;3.07;;;2.40;;
1479;SDS011;732;51.698;4.886;2023-07-29T02:13:54;3.70;;;2.50;;
1479;SDS011;732;51.698;4.886;2023-07-29T02:16:23;4.97;;;2.50;;
1479;SDS011;732;51.698;4.886;2023-07-29T02:18:51;3.30;;;2.20;;
1479;SDS011;732;51.698;4.886;2023-07-29T02:21:22;3.03;;;2.20;;
1479;SDS011;732;51.698;4.886;2023-07-29T02:23:51;3.70;;;2.20;;
1479;SDS011;732;51.698;4.886;2023-07-29T02:26:19;3.80;;;2.40;;
1479;SDS011;732;51.698;4.886;2023-07-29T02:28:49;3.87;;;2.77;;
1479;SDS011;732;51.698;4.886;2023-07-29T02:31:19;4.60;;;2.20;;
1479;SDS011;732;51.698;4.886;2023-07-29T02:33:49;3.70;;;2.50;;
1479;SDS011;732;51.698;4.886;2023-07-29T02:36:19;3.87;;;2.80;;
1479;SDS011;732;51.698;4.886;2023-07-29T02:38:48;5.20;;;2.77;;
1479;SDS011;732;51.698;4.886;2023-07-29T02:41:17;4.30;;;2.40;;
1479;SDS011;732;51.698;4.886;2023-07-29T02:43:49;4.40;;;2.80;;
1479;SDS011;732;51.698;4.886;2023-07-29T02:46:18;5.23;;;3.00;;
1479;SDS011;732;51.698;4.886;2023-07-29T02:48:46;4.03;;;2.50;;
1479;SDS011;732;51.698;4.886;2023-07-29T02:51:15;6.70;;;2.70;;
1479;SDS011;732;51.698;4.886;2023-07-29T02:53:43;4.93;;;3.17;;
1479;SDS011;732;51.698;4.886;2023-07-29T02:56:12;6.03;;;3.10;;
1479;SDS011;732;51.698;4.886;2023-07-29T02:58:40;4.90;;;2.70;;
1479;SDS011;732;51.698;4.886;2023-07-29T03:01:10;5.27;;;2.80;;
1479;SDS011;732;51.698;4.886;2023-07-29T03:03:39;6.13;;;2.97;;
1479;SDS011;732;51.698;4.886;2023-07-29T03:06:08;8.00;;;3.10;;
1479;SDS011;732;51.698;4.886;2023-07-29T03:08:38;5.03;;;2.80;;
1479;SDS011;732;51.698;4.886;2023-07-29T03:11:07;4.00;;;2.47;;
1479;SDS011;732;51.698;4.886;2023-07-29T03:13:37;8.67;;;2.53;;
1479;SDS011;732;51.698;4.886;2023-07-29T03:16:05;4.27;;;2.83;;
1479;SDS011;732;51.698;4.886;2023-07-29T03:18:38;4.77;;;2.77;;
1479;SDS011;732;51.698;4.886;2023-07-29T03:21:07;6.50;;;2.70;;
1479;SDS011;732;51.698;4.886;2023-07-29T03:23:37;4.83;;;3.33;;
1479;SDS011;732;51.698;4.886;2023-07-29T03:26:06;5.53;;;3.23;;
1479;SDS011;732;51.698;4.886;2023-07-29T03:28:39;5.60;;;3.37;;
1479;SDS011;732;51.698;4.886;2023-07-29T03:31:09;9.17;;;4.20;;
1479;SDS011;732;51.698;4.886;2023-07-29T03:33:40;5.27;;;3.47;;
1479;SDS011;732;51.698;4.886;2023-07-29T03:36:09;6.23;;;3.80;;
1479;SDS011;732;51.698;4.886;2023-07-29T03:38:37;6.20;;;3.60;;
1479;SDS011;732;51.698;4.886;2023-07-29T03:41:08;6.30;;;4.20;;
1479;SDS011;732;51.698;4.886;2023-07-29T03:43:36;7.53;;;4.17;;
1479;SDS011;732;51.698;4.886;2023-07-29T03:46:05;5.43;;;3.80;;
1479;SDS011;732;51.698;4.886;2023-07-29T03:48:38;7.40;;;3.87;;
1479;SDS011;732;51.698;4.886;2023-07-29T03:51:09;8.13;;;4.23;;
1479;SDS011;732;51.698;4.886;2023-07-29T03:53:37;7.70;;;4.57;;
1479;SDS011;732;51.698;4.886;2023-07-29T03:56:06;11.90;;;4.10;;
1479;SDS011;732;51.698;4.886;2023-07-29T03:58:35;8.10;;;4.30;;
1479;SDS011;732;51.698;4.886;2023-07-29T04:01:04;7.10;;;4.67;;
1479;SDS011;732;51.698;4.886;2023-07-29T04:03:34;6.50;;;4.50;;
1479;SDS011;732;51.698;4.886;2023-07-29T04:06:04;7.77;;;4.43;;
1479;SDS011;732;51.698;4.886;2023-07-29T04:08:34;9.80;;;5.30;;
1479;SDS011;732;51.698;4.886;2023-07-29T04:11:03;7.90;;;4.73;;
1479;SDS011;732;51.698;4.886;2023-07-29T04:13:31;9.80;;;4.97;;
1479;SDS011;732;51.698;4.886;2023-07-29T04:15:59;7.20;;;5.30;;
1479;SDS011;732;51.698;4.886;2023-07-29T04:18:28;9.30;;;5.33;;
1479;SDS011;732;51.698;4.886;2023-07-29T04:20:56;10.23;;;5.40;;
1479;SDS011;732;51.698;4.886;2023-07-29T04:23:26;7.67;;;4.50;;
1479;SDS011;732;51.698;4.886;2023-07-29T04:25:54;8.50;;;5.00;;
1479;SDS011;732;51.698;4.886;2023-07-29T04:28:23;7.77;;;5.33;;
1479;SDS011;732;51.698;4.886;2023-07-29T04:30:51;7.43;;;4.73;;
1479;SDS011;732;51.698;4.886;2023-07-29T04:33:19;8.13;;;5.13;;
1479;SDS011;732;51.698;4.886;2023-07-29T04:35:48;7.90;;;4.70;;
1479;SDS011;732;51.698;4.886;2023-07-29T04:38:16;13.57;;;5.63;;
1479;SDS011;732;51.698;4.886;2023-07-29T04:40:46;8.07;;;4.80;;
1479;SDS011;732;51.698;4.886;2023-07-29T04:43:16;8.93;;;5.17;;
1479;SDS011;732;51.698;4.886;2023-07-29T04:45:45;12.17;;;5.70;;
1479;SDS011;732;51.698;4.886;2023-07-29T04:48:14;9.13;;;5.27;;
1479;SDS011;732;51.698;4.886;2023-07-29T04:50:43;9.80;;;5.70;;
1479;SDS011;732;51.698;4.886;2023-07-29T04:53:11;9.93;;;5.70;;
1479;SDS011;732;51.698;4.886;2023-07-29T04:55:40;10.17;;;4.87;;
1479;SDS011;732;51.698;4.886;2023-07-29T04:58:11;8.70;;;5.20;;
1479;SDS011;732;51.698;4.886;2023-07-29T05:00:42;7.00;;;4.40;;
1479;SDS011;732;51.698;4.886;2023-07-29T05:03:11;10.30;;;5.53;;
1479;SDS011;732;51.698;4.886;2023-07-29T05:05:39;8.00;;;4.93;;
1479;SDS011;732;51.698;4.886;2023-07-29T05:08:07;10.73;;;5.03;;
1479;SDS011;732;51.698;4.886;2023-07-29T05:10:36;7.83;;;5.20;;
1479;SDS011;732;51.698;4.886;2023-07-29T05:13:04;7.20;;;4.60;;
1479;SDS011;732;51.698;4.886;2023-07-29T05:15:35;7.97;;;4.57;;
1479;SDS011;732;51.698;4.886;2023-07-29T05:18:03;7.67;;;4.47;;
1479;SDS011;732;51.698;4.886;2023-07-29T05:20:31;9.20;;;5.57;;
1479;SDS011;732;51.698;4.886;2023-07-29T05:23:01;9.10;;;4.87;;
1479;SDS011;732;51.698;4.886;2023-07-29T05:25:29;7.80;;;4.83;;
1479;SDS011;732;51.698;4.886;2023-07-29T05:27:57;7.83;;;5.53;;
1479;SDS011;732;51.698;4.886;2023-07-29T05:30:26;6.97;;;4.90;;
1479;SDS011;732;51.698;4.886;2023-07-29T05:32:58;12.27;;;5.13;;
1479;SDS011;732;51.698;4.886;2023-07-29T05:35:27;8.23;;;5.50;;
1479;SDS011;732;51.698;4.886;2023-07-29T05:37:55;12.33;;;6.10;;
1479;SDS011;732;51.698;4.886;2023-07-29T05:40:23;8.57;;;4.90;;
1479;SDS011;732;51.698;4.886;2023-07-29T05:42:52;7.80;;;5.20;;
1479;SDS011;732;51.698;4.886;2023-07-29T05:45:21;9.20;;;5.90;;
1479;SDS011;732;51.698;4.886;2023-07-29T05:47:50;8.33;;;5.60;;
1479;SDS011;732;51.698;4.886;2023-07-29T05:50:19;11.70;;;5.60;;
1479;SDS011;732;51.698;4.886;2023-07-29T05:52:48;7.90;;;4.90;;
1479;SDS011;732;51.698;4.886;2023-07-29T05:55:16;11.40;;;6.10;;
1479;SDS011;732;51.698;4.886;2023-07-29T05:57:45;7.73;;;4.50;;
1479;SDS011;732;51.698;4.886;2023-07-29T06:00:14;7.67;;;5.00;;
1479;SDS011;732;51.698;4.886;2023-07-29T06:02:43;11.90;;;5.40;;
1479;SDS011;732;51.698;4.886;2023-07-29T06:05:15;8.63;;;5.00;;
1479;SDS011;732;51.698;4.886;2023-07-29T06:07:45;7.47;;;4.40;;
1479;SDS011;732;51.698;4.886;2023-07-29T06:10:14;7.10;;;4.23;;
1479;SDS011;732;51.698;4.886;2023-07-29T06:12:45;6.90;;;4.90;;
1479;SDS011;732;51.698;4.886;2023-07-29T06:15:14;8.37;;;4.73;;
1479;SDS011;732;51.698;4.886;2023-07-29T06:17:42;6.27;;;4.63;;
1479;SDS011;732;51.698;4.886;2023-07-29T06:20:11;7.83;;;4.40;;
1479;SDS011;732;51.698;4.886;2023-07-29T06:22:40;7.83;;;5.00;;
1479;SDS011;732;51.698;4.886;2023-07-29T06:25:11;6.43;;;4.37;;
1479;SDS011;732;51.698;4.886;2023-07-29T06:27:39;6.87;;;4.70;;
1479;SDS011;732;51.698;4.886;2023-07-29T06:30:07;7.93;;;5.03;;
1479;SDS011;732;51.698;4.886;2023-07-29T06:32:36;6.10;;;4.23;;
1479;SDS011;732;51.698;4.886;2023-07-29T06:35:05;6.20;;;4.47;;
1479;SDS011;732;51.698;4.886;2023-07-29T06:37:34;7.63;;;4.10;;
1479;SDS011;732;51.698;4.886;2023-07-29T06:40:03;7.30;;;4.67;;
1479;SDS011;732;51.698;4.886;2023-07-29T06:42:34;6.80;;;4.20;;
1479;SDS011;732;51.698;4.886;2023-07-29T06:45:04;9.20;;;4.53;;
1479;SDS011;732;51.698;4.886;2023-07-29T06:47:33;7.53;;;4.33;;
1479;SDS011;732;51.698;4.886;2023-07-29T06:50:02;7.67;;;5.00;;
1479;SDS011;732;51.698;4.886;2023-07-29T06:52:30;6.47;;;4.00;;
1479;SDS011;732;51.698;4.886;2023-07-29T06:54:59;9.23;;;4.40;;
1479;SDS011;732;51.698;4.886;2023-07-29T06:57:27;5.57;;;4.13;;
1479;SDS011;732;51.698;4.886;2023-07-29T06:59:57;6.70;;;4.50;;
1479;SDS011;732;51.698;4.886;2023-07-29T07:02:25;6.73;;;3.93;;
1479;SDS011;732;51.698;4.886;2023-07-29T07:04:54;8.87;;;4.70;;
1479;SDS011;732;51.698;4.886;2023-07-29T07:07:22;6.90;;;4.90;;
1479;SDS011;732;51.698;4.886;2023-07-29T07:09:51;7.73;;;4.60;;
1479;SDS011;732;51.698;4.886;2023-07-29T07:12:19;9.90;;;4.67;;
1479;SDS011;732;51.698;4.886;2023-07-29T07:14:47;6.70;;;4.77;;
1479;SDS011;732;51.698;4.886;2023-07-29T07:17:17;11.20;;;4.60;;
1479;SDS011;732;51.698;4.886;2023-07-29T07:19:46;7.23;;;4.60;;
1479;SDS011;732;51.698;4.886;2023-07-29T07:22:14;7.53;;;4.47;;
1479;SDS011;732;51.698;4.886;2023-07-29T07:24:43;6.60;;;4.60;;
1479;SDS011;732;51.698;4.886;2023-07-29T07:27:12;10.77;;;4.60;;
1479;SDS011;732;51.698;4.886;2023-07-29T07:29:41;7.50;;;4.80;;
1479;SDS011;732;51.698;4.886;2023-07-29T07:32:09;6.27;;;4.20;;
1479;SDS011;732;51.698;4.886;2023-07-29T07:34:39;9.43;;;3.90;;
1479;SDS011;732;51.698;4.886;2023-07-29T07:37:07;7.20;;;4.00;;
1479;SDS011;732;51.698;4.886;2023-07-29T07:39:36;6.40;;;4.20;;
1479;SDS011;732;51.698;4.886;2023-07-29T07:42:05;8.43;;;3.73;;
1479;SDS011;732;51.698;4.886;2023-07-29T07:44:34;5.83;;;3.90;;
1479;SDS011;732;51.698;4.886;2023-07-29T07:47:02;8.40;;;3.50;;
1479;SDS011;732;51.698;4.886;2023-07-29T07:49:31;4.23;;;3.03;;
1479;SDS011;732;51.698;4.886;2023-07-29T07:52:01;4.70;;;3.13;;
1479;SDS011;732;51.698;4.886;2023-07-29T07:54:29;5.17;;;2.87;;
1479;SDS011;732;51.698;4.886;2023-07-29T07:56:57;6.27;;;3.00;;
1479;SDS011;732;51.698;4.886;2023-07-29T07:59:26;4.60;;;2.80;;
1479;SDS011;732;51.698;4.886;2023-07-29T08:01:54;4.80;;;2.70;;
1479;SDS011;732;51.698;4.886;2023-07-29T08:04:22;3.47;;;2.30;;
1479;SDS011;732;51.698;4.886;2023-07-29T08:06:51;3.40;;;2.30;;
1479;SDS011;732;51.698;4.886;2023-07-29T08:09:20;3.60;;;2.50;;
1479;SDS011;732;51.698;4.886;2023-07-29T08:11:49;4.67;;;2.63;;
1479;SDS011;732;51.698;4.886;2023-07-29T08:14:17;5.63;;;3.57;;
1479;SDS011;732;51.698;4.886;2023-07-29T08:16:45;4.00;;;2.30;;
1479;SDS011;732;51.698;4.886;2023-07-29T08:19:14;3.73;;;2.40;;
1479;SDS011;732;51.698;4.886;2023-07-29T08:21:42;8.20;;;2.83;;
1479;SDS011;732;51.698;4.886;2023-07-29T08:24:11;4.37;;;2.53;;
1479;SDS011;732;51.698;4.886;2023-07-29T08:26:42;4.10;;;2.63;;
1479;SDS011;732;51.698;4.886;2023-07-29T08:29:10;4.70;;;2.40;;
1479;SDS011;732;51.698;4.886;2023-07-29T08:31:39;4.63;;;2.47;;
1479;SDS011;732;51.698;4.886;2023-07-29T08:34:07;3.73;;;2.50;;
1479;SDS011;732;51.698;4.886;2023-07-29T08:36:35;4.83;;;2.97;;
1479;SDS011;732;51.698;4.886;2023-07-29T08:39:04;6.47;;;2.70;;
1479;SDS011;732;51.698;4.886;2023-07-29T08:41:34;4.00;;;2.50;;
1479;SDS011;732;51.698;4.886;2023-07-29T08:44:16;8.13;;;2.70;;
1479;SDS011;732;51.698;4.886;2023-07-29T08:46:50;3.97;;;2.60;;
1479;SDS011;732;51.698;4.886;2023-07-29T08:49:20;4.10;;;2.60;;
1479;SDS011;732;51.698;4.886;2023-07-29T08:51:49;4.73;;;3.10;;
1479;SDS011;732;51.698;4.886;2023-07-29T08:54:21;5.00;;;2.93;;
1479;SDS011;732;51.698;4.886;2023-07-29T08:56:49;4.07;;;2.53;;
1479;SDS011;732;51.698;4.886;2023-07-29T08:59:19;4.83;;;2.60;;
1479;SDS011;732;51.698;4.886;2023-07-29T09:01:48;3.70;;;2.40;;
1479;SDS011;732;51.698;4.886;2023-07-29T09:04:19;5.03;;;2.83;;
1479;SDS011;732;51.698;4.886;2023-07-29T09:06:47;7.87;;;2.83;;
1479;SDS011;732;51.698;4.886;2023-07-29T09:09:18;3.60;;;2.67;;
1479;SDS011;732;51.698;4.886;2023-07-29T09:11:48;3.70;;;2.33;;
1479;SDS011;732;51.698;4.886;2023-07-29T09:14:17;3.77;;;2.50;;
1479;SDS011;732;51.698;4.886;2023-07-29T09:16:47;3.33;;;2.23;;
1479;SDS011;732;51.698;4.886;2023-07-29T09:19:15;3.90;;;2.00;;
1479;SDS011;732;51.698;4.886;2023-07-29T09:21:46;4.70;;;2.27;;
1479;SDS011;732;51.698;4.886;2023-07-29T09:24:15;4.23;;;2.40;;
1479;SDS011;732;51.698;4.886;2023-07-29T09:26:48;3.80;;;2.13;;
1479;SDS011;732;51.698;4.886;2023-07-29T09:29:23;3.83;;;2.47;;
1479;SDS011;732;51.698;4.886;2023-07-29T09:32:03;4.63;;;2.47;;
1479;SDS011;732;51.698;4.886;2023-07-29T09:34:47;5.03;;;2.10;;
1479;SDS011;732;51.698;4.886;2023-07-29T09:37:16;4.30;;;2.30;;
1479;SDS011;732;51.698;4.886;2023-07-29T09:39:45;3.70;;;2.07;;
1479;SDS011;732;51.698;4.886;2023-07-29T09:42:16;3.13;;;1.90;;
1479;SDS011;732;51.698;4.886;2023-07-29T09:44:47;6.90;;;2.03;;
1479;SDS011;732;51.698;4.886;2023-07-29T09:47:22;3.40;;;1.87;;
1479;SDS011;732;51.698;4.886;2023-07-29T09:49:53;3.97;;;1.90;;
1479;SDS011;732;51.698;4.886;2023-07-29T09:52:22;4.60;;;2.10;;
1479;SDS011;732;51.698;4.886;2023-07-29T09:54:51;3.00;;;2.23;;
1479;SDS011;732;51.698;4.886;2023-07-29T09:57:19;3.70;;;2.13;;
1479;SDS011;732;51.698;4.886;2023-07-29T09:59:55;6.77;;;2.40;;
1479;SDS011;732;51.698;4.886;2023-07-29T10:02:25;3.43;;;1.97;;
1479;SDS011;732;51.698;4.886;2023-07-29T10:04:55;2.60;;;2.00;;
1479;SDS011;732;51.698;4.886;2023-07-29T10:07:25;3.37;;;1.87;;
1479;SDS011;732;51.698;4.886;2023-07-29T10:09:53;3.67;;;2.20;;
1479;SDS011;732;51.698;4.886;2023-07-29T10:12:23;3.37;;;2.37;;
1479;SDS011;732;51.698;4.886;2023-07-29T10:14:53;5.03;;;2.50;;
1479;SDS011;732;51.698;4.886;2023-07-29T10:17:22;4.70;;;2.47;;
1479;SDS011;732;51.698;4.886;2023-07-29T10:19:53;6.37;;;2.93;;
1479;SDS011;732;51.698;4.886;2023-07-29T10:22:24;5.20;;;3.43;;
1479;SDS011;732;51.698;4.886;2023-07-29T10:24:56;16.77;;;4.43;;
1479;SDS011;732;51.698;4.886;2023-07-29T10:27:32;6.90;;;3.87;;
1479;SDS011;732;51.698;4.886;2023-07-29T10:30:11;9.07;;;3.67;;
1479;SDS011;732;51.698;4.886;2023-07-29T10:32:43;5.00;;;3.03;;
1479;SDS011;732;51.698;4.886;2023-07-29T10:35:13;6.20;;;3.10;;
1479;SDS011;732;51.698;4.886;2023-07-29T10:37:43;10.33;;;3.80;;
1479;SDS011;732;51.698;4.886;2023-07-29T10:40:13;15.47;;;5.30;;
1479;SDS011;732;51.698;4.886;2023-07-29T10:42:58;8.23;;;5.30;;
1479;SDS011;732;51.698;4.886;2023-07-29T10:45:36;9.87;;;6.03;;
1479;SDS011;732;51.698;4.886;2023-07-29T10:48:09;12.10;;;7.07;;
1479;SDS011;732;51.698;4.886;2023-07-29T10:50:38;7.90;;;5.80;;
1479;SDS011;732;51.698;4.886;2023-07-29T10:53:07;11.07;;;6.70;;
1479;SDS011;732;51.698;4.886;2023-07-29T10:55:35;9.63;;;5.87;;
1479;SDS011;732;51.698;4.886;2023-07-29T10:58:05;7.97;;;5.13;;
1479;SDS011;732;51.698;4.886;2023-07-29T11:00:44;9.03;;;4.70;;
1479;SDS011;732;51.698;4.886;2023-07-29T11:03:15;7.90;;;5.40;;
1479;SDS011;732;51.698;4.886;2023-07-29T11:05:44;8.67;;;6.20;;
1479;SDS011;732;51.698;4.886;2023-07-29T11:08:16;9.33;;;7.00;;
1479;SDS011;732;51.698;4.886;2023-07-29T11:10:57;11.10;;;7.30;;
1479;SDS011;732;51.698;4.886;2023-07-29T11:13:31;10.80;;;7.63;;
1479;SDS011;732;51.698;4.886;2023-07-29T11:16:01;9.07;;;7.60;;
1479;SDS011;732;51.698;4.886;2023-07-29T11:18:32;12.67;;;8.93;;
1479;SDS011;732;51.698;4.886;2023-07-29T11:21:02;16.73;;;7.97;;
1479;SDS011;732;51.698;4.886;2023-07-29T11:23:32;9.63;;;8.07;;
1479;SDS011;732;51.698;4.886;2023-07-29T11:26:03;12.57;;;8.73;;
1479;SDS011;732;51.698;4.886;2023-07-29T11:28:37;12.30;;;9.10;;
1479;SDS011;732;51.698;4.886;2023-07-29T11:31:07;10.77;;;8.30;;
1479;SDS011;732;51.698;4.886;2023-07-29T11:33:38;10.13;;;8.97;;
1479;SDS011;732;51.698;4.886;2023-07-29T11:36:16;10.47;;;7.83;;
1479;SDS011;732;51.698;4.886;2023-07-29T11:38:46;13.43;;;9.07;;
1479;SDS011;732;51.698;4.886;2023-07-29T11:41:18;9.77;;;7.13;;
1479;SDS011;732;51.698;4.886;2023-07-29T11:43:48;9.63;;;7.00;;
1479;SDS011;732;51.698;4.886;2023-07-29T11:46:20;8.70;;;6.60;;
1479;SDS011;732;51.698;4.886;2023-07-29T11:48:53;9.63;;;6.30;;
1479;SDS011;732;51.698;4.886;2023-07-29T11:51:21;8.20;;;5.40;;
1479;SDS011;732;51.698;4.886;2023-07-29T11:53:50;5.93;;;5.20;;
1479;SDS011;732;51.698;4.886;2023-07-29T11:56:19;8.53;;;5.63;;
1479;SDS011;732;51.698;4.886;2023-07-29T11:58:48;6.57;;;5.53;;
1479;SDS011;732;51.698;4.886;2023-07-29T12:01:17;7.60;;;5.40;;
1479;SDS011;732;51.698;4.886;2023-07-29T12:03:46;5.93;;;5.03;;
1479;SDS011;732;51.698;4.886;2023-07-29T12:06:16;5.77;;;4.80;;
1479;SDS011;732;51.698;4.886;2023-07-29T12:08:45;6.77;;;5.33;;
1479;SDS011;732;51.698;4.886;2023-07-29T12:11:14;6.43;;;5.73;;
1479;SDS011;732;51.698;4.886;2023-07-29T12:13:43;6.53;;;5.50;;
1479;SDS011;732;51.698;4.886;2023-07-29T12:16:15;6.23;;;5.63;;
1479;SDS011;732;51.698;4.886;2023-07-29T12:18:44;7.47;;;5.80;;
1479;SDS011;732;51.698;4.886;2023-07-29T12:21:16;7.07;;;5.67;;
1479;SDS011;732;51.698;4.886;2023-07-29T12:23:46;7.10;;;5.53;;
1479;SDS011;732;51.698;4.886;2023-07-29T12:26:14;6.83;;;6.13;;
1479;SDS011;732;51.698;4.886;2023-07-29T12:28:45;8.03;;;6.33;;
1479;SDS011;732;51.698;4.886;2023-07-29T12:31:14;10.70;;;6.60;;
1479;SDS011;732;51.698;4.886;2023-07-29T12:33:42;8.13;;;5.70;;
1479;SDS011;732;51.698;4.886;2023-07-29T12:36:11;7.27;;;5.93;;
1479;SDS011;732;51.698;4.886;2023-07-29T12:38:41;6.50;;;5.60;;
1479;SDS011;732;51.698;4.886;2023-07-29T12:41:11;8.17;;;6.23;;
1479;SDS011;732;51.698;4.886;2023-07-29T12:43:39;8.13;;;5.20;;
1479;SDS011;732;51.698;4.886;2023-07-29T12:46:07;5.40;;;4.90;;
1479;SDS011;732;51.698;4.886;2023-07-29T12:48:36;9.90;;;5.30;;
1479;SDS011;732;51.698;4.886;2023-07-29T12:51:04;7.13;;;4.97;;
1479;SDS011;732;51.698;4.886;2023-07-29T12:53:32;6.30;;;4.77;;
1479;SDS011;732;51.698;4.886;2023-07-29T12:56:02;5.37;;;3.90;;
1479;SDS011;732;51.698;4.886;2023-07-29T12:58:31;5.50;;;4.50;;
1479;SDS011;732;51.698;4.886;2023-07-29T13:00:59;5.77;;;5.17;;
1479;SDS011;732;51.698;4.886;2023-07-29T13:03:28;6.87;;;4.70;;
1479;SDS011;732;51.698;4.886;2023-07-29T13:05:57;4.97;;;4.30;;
1479;SDS011;732;51.698;4.886;2023-07-29T13:08:26;6.90;;;5.27;;
1479;SDS011;732;51.698;4.886;2023-07-29T13:10:57;5.70;;;4.50;;
1479;SDS011;732;51.698;4.886;2023-07-29T13:13:26;6.23;;;5.43;;
1479;SDS011;732;51.698;4.886;2023-07-29T13:15:55;5.47;;;4.53;;
1479;SDS011;732;51.698;4.886;2023-07-29T13:18:27;6.10;;;3.33;;
1479;SDS011;732;51.698;4.886;2023-07-29T13:20:56;4.20;;;3.40;;
1479;SDS011;732;51.698;4.886;2023-07-29T13:23:26;5.50;;;3.80;;
1479;SDS011;732;51.698;4.886;2023-07-29T13:25:56;5.40;;;4.03;;
1479;SDS011;732;51.698;4.886;2023-07-29T13:28:24;4.33;;;3.80;;
1479;SDS011;732;51.698;4.886;2023-07-29T13:30:54;4.77;;;3.17;;
1479;SDS011;732;51.698;4.886;2023-07-29T13:33:22;4.03;;;3.20;;
1479;SDS011;732;51.698;4.886;2023-07-29T13:35:50;4.70;;;3.73;;
1479;SDS011;732;51.698;4.886;2023-07-29T13:38:18;4.30;;;3.20;;
1479;SDS011;732;51.698;4.886;2023-07-29T13:40:47;4.40;;;4.00;;
1479;SDS011;732;51.698;4.886;2023-07-29T13:43:17;5.07;;;4.37;;
1479;SDS011;732;51.698;4.886;2023-07-29T13:45:45;5.23;;;3.90;;
1479;SDS011;732;51.698;4.886;2023-07-29T13:48:17;4.27;;;3.83;;
1479;SDS011;732;51.698;4.886;2023-07-29T13:50:46;4.43;;;4.03;;
1479;SDS011;732;51.698;4.886;2023-07-29T13:53:17;6.33;;;4.70;;
1479;SDS011;732;51.698;4.886;2023-07-29T13:55:45;5.73;;;4.17;;
1479;SDS011;732;51.698;4.886;2023-07-29T13:58:14;6.27;;;4.60;;
1479;SDS011;732;51.698;4.886;2023-07-29T14:00:42;5.17;;;4.77;;
1479;SDS011;732;51.698;4.886;2023-07-29T14:03:10;5.40;;;4.73;;
1479;SDS011;732;51.698;4.886;2023-07-29T14:05:40;5.20;;;4.70;;
1479;SDS011;732;51.698;4.886;2023-07-29T14:08:09;4.53;;;4.00;;
1479;SDS011;732;51.698;4.886;2023-07-29T14:10:37;4.13;;;3.73;;
1479;SDS011;732;51.698;4.886;2023-07-29T14:13:05;4.40;;;4.00;;
1479;SDS011;732;51.698;4.886;2023-07-29T14:15:34;6.43;;;4.30;;
1479;SDS011;732;51.698;4.886;2023-07-29T14:18:02;4.43;;;4.03;;
1479;SDS011;732;51.698;4.886;2023-07-29T14:20:31;5.63;;;4.97;;
1479;SDS011;732;51.698;4.886;2023-07-29T14:23:01;4.63;;;4.23;;
1479;SDS011;732;51.698;4.886;2023-07-29T14:25:29;4.80;;;4.00;;
1479;SDS011;732;51.698;4.886;2023-07-29T14:27:58;5.00;;;4.37;;
1479;SDS011;732;51.698;4.886;2023-07-29T14:30:26;4.90;;;3.60;;
1479;SDS011;732;51.698;4.886;2023-07-29T14:32:54;5.13;;;4.17;;
1479;SDS011;732;51.698;4.886;2023-07-29T14:35:23;5.53;;;3.87;;
1479;SDS011;732;51.698;4.886;2023-07-29T14:37:51;3.80;;;3.27;;
1479;SDS011;732;51.698;4.886;2023-07-29T14:40:21;6.23;;;3.87;;
1479;SDS011;732;51.698;4.886;2023-07-29T14:42:49;3.77;;;3.10;;
1479;SDS011;732;51.698;4.886;2023-07-29T14:45:17;5.50;;;3.60;;
1479;SDS011;732;51.698;4.886;2023-07-29T14:47:46;5.40;;;3.73;;
1479;SDS011;732;51.698;4.886;2023-07-29T14:50:14;5.73;;;4.10;;
1479;SDS011;732;51.698;4.886;2023-07-29T14:52:43;4.63;;;3.50;;
1479;SDS011;732;51.698;4.886;2023-07-29T14:55:11;4.90;;;4.10;;
1479;SDS011;732;51.698;4.886;2023-07-29T14:57:41;7.60;;;5.93;;
1479;SDS011;732;51.698;4.886;2023-07-29T15:00:10;8.37;;;6.33;;
1479;SDS011;732;51.698;4.886;2023-07-29T15:02:40;7.13;;;5.53;;
1479;SDS011;732;51.698;4.886;2023-07-29T15:05:08;7.90;;;7.10;;
1479;SDS011;732;51.698;4.886;2023-07-29T15:07:37;8.57;;;7.57;;
1479;SDS011;732;51.698;4.886;2023-07-29T15:10:05;9.37;;;7.83;;
1479;SDS011;732;51.698;4.886;2023-07-29T15:12:35;9.10;;;7.90;;
1479;SDS011;732;51.698;4.886;2023-07-29T15:15:05;12.97;;;11.67;;
1479;SDS011;732;51.698;4.886;2023-07-29T15:17:35;10.33;;;6.73;;
1479;SDS011;732;51.698;4.886;2023-07-29T15:20:05;8.60;;;7.00;;
1479;SDS011;732;51.698;4.886;2023-07-29T15:22:34;7.87;;;5.83;;
1479;SDS011;732;51.698;4.886;2023-07-29T15:25:02;7.40;;;5.33;;
1479;SDS011;732;51.698;4.886;2023-07-29T15:27:31;7.23;;;5.93;;
1479;SDS011;732;51.698;4.886;2023-07-29T15:29:59;6.00;;;4.90;;
1479;SDS011;732;51.698;4.886;2023-07-29T15:32:29;7.63;;;5.30;;
1479;SDS011;732;51.698;4.886;2023-07-29T15:34:58;8.13;;;4.67;;
1479;SDS011;732;51.698;4.886;2023-07-29T15:37:26;5.80;;;4.13;;
1479;SDS011;732;51.698;4.886;2023-07-29T15:39:54;6.17;;;4.43;;
1479;SDS011;732;51.698;4.886;2023-07-29T15:42:24;4.43;;;3.27;;